Latest Weather Observations for Innisfail Aero

IDQ60801

Issued at 12:32 am EST Monday 18 November 2019 (issued every 10 minutes, with the page automatically refreshed every 10 minutes)

About weather observations | Map of weather stations | Latest weather observations for QLD | Other Formats
Station Details ID: 032197 Name: INNISFAIL AERODROME Lat: -17.56 Lon: 146.01 Height: 11.84 m
Data from the previous 72 hours. | See also: Recent months at Innisfail Aero
Date/Time
EST
Temp
°C
App
Temp
°C
Dew
Point
°C
Rel
Hum
%
Delta-T
°C
Wind Press
QNH
hPa
Press
MSL
hPa
Rain since
9am
mm
Dir  Spd
km/h
Gust
km/h
Spd
kts
Gust
kts
18/12:30am 19.4 21.6 19.1 98 0.2 N 6 9 3 5 1013.4 1013.4 0.0
18/12:20am 19.2 21.2 18.7 97 0.3 N 6 9 3 5 1013.4 1013.4 0.0
18/12:00am 20.2 23.8 19.7 97 0.3 CALM 0 0 0 0 1013.8 1013.8 0.0
 
Date/Time
EST
Temp
°C
App
Temp
°C
Dew
Point
°C
Rel
Hum
%
Delta-T
°C
Wind Press
QNH
hPa
Press
MSL
hPa
Rain since
9am
mm
Dir  Spd
km/h
Gust
km/h
Spd
kts
Gust
kts
17/11:30pm 20.9 23.4 20.2 96 0.4 WSW 7 9 4 5 1013.9 1013.9 0.0
17/11:00pm 20.7 23.5 20.4 98 0.2 SW 6 7 3 4 1014.2 1014.2 0.0
17/10:30pm 20.4 22.7 19.9 97 0.3 NW 7 9 4 5 1014.1 1014.1 0.0
17/10:00pm 20.9 23.6 20.2 96 0.4 WNW 6 7 3 4 1014.1 1014.1 0.0
17/09:30pm 21.5 24.4 20.7 95 0.5 WNW 6 6 3 3 1014.1 1014.1 0.0
17/09:00pm 21.7 24.4 20.7 94 0.6 NW 7 7 4 4 1014.0 1014.0 0.0
17/08:30pm 21.4 23.7 19.9 91 1.0 NNW 7 9 4 5 1013.8 1013.8 0.0
17/08:00pm 22.8 25.9 21.1 90 1.1 NW 6 7 3 4 1013.4 1013.4 0.0
17/07:30pm 23.2 26.6 20.9 87 1.5 N 4 6 2 3 1012.9 1012.9 0.0
17/07:00pm 24.3 27.7 21.0 82 2.2 ENE 4 6 2 3 1012.6 1012.6 0.0
17/06:30pm 24.9 27.6 20.6 77 2.8 ENE 7 9 4 5 1012.1 1012.1 0.0
17/06:00pm 26.0 27.6 20.8 73 3.4 ENE 13 15 7 8 1011.9 1011.9 0.0
17/05:30pm 27.0 28.2 20.6 68 4.2 NE 15 20 8 11 1011.8 1011.8 0.0
17/05:00pm 28.4 30.1 20.9 64 5.0 ENE 13 17 7 9 1011.6 1011.6 0.0
17/04:30pm 29.1 30.4 20.8 61 5.5 NE 15 24 8 13 1011.5 1011.5 0.0
17/04:00pm 29.5 30.8 20.9 60 5.7 NE 15 20 8 11 1011.3 1011.3 0.0
17/03:30pm 29.8 30.6 20.6 57 6.1 NE 17 24 9 13 1011.4 1011.4 0.0
17/03:00pm 30.3 31.0 20.5 55 6.5 NE 17 26 9 14 1011.6 1011.6 0.0
17/02:30pm 30.0 31.2 20.0 55 6.6 E 13 20 7 11 1011.8 1011.8 0.0
17/02:00pm 30.3 31.0 20.5 55 6.5 E 17 22 9 12 1012.2 1012.2 0.0
17/01:30pm 31.1 31.3 20.1 52 7.3 ENE 19 26 10 14 1012.5 1012.5 0.0
17/01:00pm 31.0 31.2 19.4 50 7.6 NE 17 26 9 14 1012.8 1012.8 0.0
17/12:30pm 30.8 32.0 19.8 52 7.2 ENE 13 19 7 10 1013.1 1013.1 0.0
17/12:00pm 31.0 32.0 19.4 50 7.6 NE 13 20 7 11 1013.6 1013.6 0.0
17/11:30am 30.8 31.6 19.8 52 7.2 NE 15 20 8 11 1014.0 1014.0 0.0
17/11:00am 31.1 32.9 20.4 53 7.1 NE 11 17 6 9 1014.3 1014.3 0.0
17/10:30am 30.0 31.5 19.7 54 6.7 ENE 11 17 6 9 1014.7 1014.7 0.0
17/10:00am 30.1 32.8 20.6 56 6.3 ESE 7 15 4 8 1015.0 1015.0 0.0
17/09:30am 28.8 31.0 19.7 58 5.9 NW 7 11 4 6 1015.1 1015.1 0.0
17/09:00am 28.1 30.5 20.1 62 5.2 ESE 7 11 4 6 1015.3 1015.3 0.0
17/08:30am 26.3 29.1 20.4 70 3.9 WSW 6 11 3 6 1015.1 1015.1 0.0
17/08:00am 25.9 30.2 22.0 79 2.6 SW 2 7 1 4 1015.2 1015.2 0.0
17/07:30am 22.7 26.2 21.9 95 0.5 W 6 7 3 4 1015.1 1015.1 0.0
17/07:00am 21.3 24.3 21.3 100 0.0 N 7 9 4 5 1015.0 1015.0 0.0
17/06:30am 19.6 22.0 19.6 100 0.0 NW 6 7 3 4 1014.8 1014.8 0.0
17/06:06am 18.7 20.5 18.7 100 0.0 NW 7 9 4 5 1014.4 1014.4 0.0
17/06:00am 18.5 20.2 18.5 100 0.0 NW 7 9 4 5 1014.3 1014.3 0.0
17/05:57am 18.5 20.2 18.5 100 0.0 NW 7 9 4 5 1014.3 1014.3 0.0
17/05:30am 18.3 19.9 18.3 100 0.0 NNW 7 9 4 5 1014.1 1014.1 0.0
17/05:01am 17.4 18.7 17.2 99 0.1 N 6 7 3 4 1013.7 1013.7 0.0
17/05:00am 17.5 18.9 17.3 99 0.1 N 6 7 3 4 1013.7 1013.7 0.0
17/04:30am 19.4 22.5 19.4 100 0.0 NNW 2 6 1 3 1013.5 1013.5 0.0
17/04:27am 19.5 22.2 19.5 100 0.0 NNW 4 6 2 3 1013.5 1013.5 0.0
17/04:00am 18.9 21.0 18.9 100 0.0 N 6 7 3 4 1013.5 1013.5 0.0
17/03:57am 18.8 20.8 18.8 100 0.0 N 6 7 3 4 1013.5 1013.5 0.0
17/03:30am 19.2 21.4 19.2 100 0.0 NW 6 6 3 3 1013.6 1013.6 0.0
17/03:00am 18.6 21.5 18.3 98 0.2 CALM 0 0 0 0 1013.7 1013.7 0.0
17/02:57am 18.8 21.8 18.5 98 0.2 CALM 0 0 0 0 1013.8 1013.8 0.0
17/02:30am 19.4 22.7 19.1 98 0.2 CALM 0 0 0 0 1013.9 1013.9 0.0
17/02:00am 20.5 24.0 20.3 99 0.1 WNW 2 6 1 3 1014.3 1014.3 0.0
17/01:30am 20.3 22.9 20.1 99 0.1 WNW 6 6 3 3 1014.4 1014.4 0.0
17/01:00am 20.1 22.3 19.6 97 0.3 NW 7 7 4 4 1014.8 1014.8 0.0
17/12:30am 20.6 22.9 19.9 96 0.4 WNW 7 9 4 5 1015.1 1015.1 0.0
17/12:00am 20.9 24.7 20.1 95 0.5 CALM 0 0 0 0 1015.3 1015.3 0.0
 
Date/Time
EST
Temp
°C
App
Temp
°C
Dew
Point
°C
Rel
Hum
%
Delta-T
°C
Wind Press
QNH
hPa
Press
MSL
hPa
Rain since
9am
mm
Dir  Spd
km/h
Gust
km/h
Spd
kts
Gust
kts
16/11:30pm 21.2 24.2 20.0 93 0.8 N 4 6 2 3 1015.4 1015.4 0.0
16/11:00pm 22.6 24.8 20.5 88 1.4 SW 9 13 5 7 1015.7 1015.7 0.0
16/10:30pm 22.5 24.9 20.8 90 1.1 SW 9 11 5 6 1015.6 1015.6 0.0
16/10:00pm 22.0 24.3 20.6 92 0.9 SW 9 9 5 5 1015.5 1015.5 0.0
16/09:30pm 21.9 24.3 20.0 89 1.2 WSW 7 7 4 4 1015.2 1015.2 0.0
16/09:00pm 21.9 24.1 20.4 91 1.0 WSW 9 9 5 5 1014.8 1014.8 0.0
16/08:30pm 21.7 24.1 20.0 90 1.1 WSW 7 7 4 4 1014.4 1014.4 0.0
16/08:00pm 22.6 25.1 19.9 85 1.7 SSE 6 6 3 3 1014.4 1014.4 0.0
16/07:30pm 23.2 25.8 20.0 82 2.1 SSE 6 7 3 4 1014.2 1014.2 0.0
16/07:00pm 24.0 26.3 19.9 78 2.6 E 7 9 4 5 1013.8 1013.8 0.0
16/06:30pm 24.8 26.6 19.6 73 3.3 E 9 11 5 6 1013.6 1013.6 0.0
16/06:00pm 26.0 27.2 19.9 69 4.0 ENE 13 17 7 9 1013.4 1013.4 0.0
16/05:30pm 26.9 27.9 19.5 64 4.8 ENE 13 17 7 9 1013.0 1013.0 0.0
16/05:00pm 27.8 28.9 19.6 61 5.3 ENE 13 19 7 10 1012.6 1012.6 0.0
16/04:30pm 28.1 29.2 19.6 60 5.5 E 13 19 7 10 1012.3 1012.3 0.0
16/04:00pm 28.6 29.0 19.8 59 5.8 ENE 17 22 9 12 1012.3 1012.3 0.0
16/03:30pm 29.2 29.4 20.1 58 6.0 ENE 19 33 10 18 1012.3 1012.3 0.0
16/03:00pm 29.5 29.7 20.1 57 6.2 ENE 19 28 10 15 1012.4 1012.4 0.0
16/02:30pm 29.6 29.8 20.2 57 6.2 ENE 19 28 10 15 1012.8 1012.8 0.0
16/02:00pm 29.3 29.8 19.3 55 6.5 E 15 24 8 13 1013.0 1013.0 0.0
16/01:30pm 29.7 30.0 20.3 57 6.2 ENE 19 24 10 13 1013.4 1013.4 0.0
16/01:00pm 29.1 28.8 18.2 51 7.0 E 17 26 9 14 1013.7 1013.7 0.0
16/12:30pm 29.4 29.3 18.8 53 6.8 ENE 17 24 9 13 1014.0 1014.0 0.0
16/12:00pm 30.6 30.9 20.5 54 6.7 E 19 32 10 17 1014.2 1014.2 0.0
16/11:30am 29.4 29.9 20.0 57 6.2 ENE 17 26 9 14 1014.6 1014.6 0.0
16/11:00am 30.0 30.5 20.8 57 6.1 ENE 19 24 10 13 1014.8 1014.8 0.0
16/10:30am 29.7 30.6 20.0 56 6.4 E 15 20 8 11 1015.0 1015.0 0.0
16/10:00am 28.5 31.0 21.0 64 5.0 NNE 9 11 5 6 1015.3 1015.3 0.0
16/09:30am 28.2 29.5 19.2 58 5.8 SE 11 19 6 10 1015.5 1015.5 0.0
16/09:00am 27.1 28.6 19.7 64 4.8 SSE 11 19 6 10 1015.7 1015.7 0.0
16/08:30am 26.6 29.4 20.4 69 4.1 S 6 9 3 5 1015.4 1015.4 0.0
16/08:00am 25.3 28.7 21.6 80 2.5 WSW 6 7 3 4 1015.2 1015.2 0.0
16/07:30am 22.9 26.3 21.7 93 0.8 NW 6 7 3 4 1014.9 1014.9 0.0
16/07:00am 21.1 24.0 21.1 100 0.0 NNW 7 7 4 4 1014.5 1014.5 0.0
16/06:30am 19.9 22.8 19.9 100 0.0 NW 4 6 2 3 1014.3 1014.3 0.0
16/06:00am 19.0 20.9 19.0 100 0.0 NW 7 7 4 4 1013.9 1013.9 0.0
16/05:36am 18.5 20.2 18.5 100 0.0 WNW 7 9 4 5 1013.6 1013.6 0.0
16/05:30am 18.5 20.4 18.5 100 0.0 WNW 6 9 3 5 1013.5 1013.5 0.0
16/05:00am 18.3 20.5 18.3 100 0.0 NW 4 6 2 3 1013.1 1013.1 0.0
16/04:50am 17.9 19.5 17.9 100 0.0 NW 6 7 3 4 1013.0 1013.0 0.0
16/04:43am 18.0 19.5 18.0 100 0.0 NW 7 7 4 4 1013.0 1013.0 0.0
16/04:41am 18.0 19.5 18.0 100 0.0 NW 7 7 4 4 1013.0 1013.0 0.0
16/04:30am 18.0 19.5 18.0 100 0.0 NNW 7 7 4 4 1013.0 1013.0 0.0
16/04:05am 17.9 19.4 17.7 99 0.1 N 6 6 3 3 1013.2 1013.2 0.0
16/04:00am 17.8 19.6 17.5 98 0.2 N 4 6 2 3 1013.2 1013.2 0.0
16/03:37am 19.4 22.8 19.4 100 0.0 CALM 0 0 0 0 1013.1 1013.1 0.0
16/03:30am 18.8 21.9 18.6 99 0.1 CALM 0 0 0 0 1013.0 1013.0 0.0
16/03:13am 19.0 22.3 19.0 100 0.0 CALM 0 0 0 0 1013.1 1013.1 0.0
16/03:00am 19.2 22.5 19.2 100 0.0 CALM 0 0 0 0 1013.2 1013.2 0.0
16/02:37am 19.3 22.6 19.1 99 0.1 CALM 0 0 0 0 1013.0 1013.0 0.0
16/02:30am 19.5 23.0 19.5 100 0.0 CALM 0 0 0 0 1013.0 1013.0 0.0
16/02:23am 19.6 23.1 19.6 100 0.0 CALM 0 0 0 0 1013.0 1013.0 0.0
16/02:06am 18.5 20.3 18.2 98 0.2 NW 6 7 3 4 1013.2 1013.2 0.0
16/02:00am 18.7 20.4 18.4 98 0.2 NW 7 7 4 4 1013.1 1013.1 0.0
16/01:30am 19.7 21.9 19.5 99 0.1 WNW 7 9 4 5 1013.5 1013.5 0.0
16/01:00am 19.7 23.1 19.4 98 0.2 CALM 0 0 0 0 1013.8 1013.8 0.0
16/12:30am 19.7 23.1 19.4 98 0.2 CALM 0 2 0 1 1014.1 1014.1 0.0
16/12:00am 20.1 22.9 19.6 97 0.3 N 4 6 2 3 1014.3 1014.3 0.0
 
Date/Time
EST
Temp
°C
App
Temp
°C
Dew
Point
°C
Rel
Hum
%
Delta-T
°C
Wind Press
QNH
hPa
Press
MSL
hPa
Rain since
9am
mm
Dir  Spd
km/h
Gust
km/h
Spd
kts
Gust
kts
15/11:30pm 20.5 24.1 19.7 95 0.5 CALM 0 6 0 3 1014.7 1014.7 0.0
15/11:00pm 20.8 24.5 20.0 95 0.5 CALM 0 0 0 0 1014.8 1014.8 0.0
15/10:30pm 20.8 24.0 19.8 94 0.6 NNW 2 6 1 3 1014.9 1014.9 0.0
15/10:00pm 21.2 23.6 19.7 91 1.0 SW 6 7 3 4 1014.9 1014.9 0.0
15/09:30pm 21.9 24.4 20.2 90 1.1 SW 7 9 4 5 1014.9 1014.9 0.0
15/09:00pm 22.2 24.4 20.5 90 1.1 WSW 9 11 5 6 1014.7 1014.7 0.0
15/08:30pm 22.1 25.9 20.2 89 1.2 CALM 0 0 0 0 1014.4 1014.4 0.0
15/08:00pm 22.8 26.7 20.3 86 1.6 CALM 0 0 0 0 1014.0 1014.0 0.0
15/07:30pm 23.2 26.3 20.2 83 1.9 E 4 6 2 3 1013.5 1013.5 0.0
15/07:00pm 24.0 26.5 19.9 78 2.6 E 6 7 3 4 1013.1 1013.1 0.0
15/06:30pm 24.7 27.0 19.8 74 3.2 ENE 7 11 4 6 1012.9 1012.9 0.0
15/06:00pm 25.9 26.9 19.5 68 4.1 ENE 13 17 7 9 1012.6 1012.6 0.0
15/05:30pm 26.8 27.4 19.4 64 4.8 ENE 15 20 8 11 1012.1 1012.1 0.0
15/05:00pm 27.4 27.3 19.5 62 5.1 ENE 19 26 10 14 1011.8 1011.8 0.0
15/04:30pm 28.0 27.4 18.4 56 6.1 ENE 19 24 10 13 1011.6 1011.6 0.0
15/04:00pm 28.6 28.1 19.0 56 6.2 ENE 20 26 11 14 1011.5 1011.5 0.0
15/03:30pm 29.0 28.2 18.4 52 6.8 ENE 20 26 11 14 1011.4 1011.4 0.0
15/03:00pm 29.6 28.9 18.7 52 7.0 NE 20 28 11 15 1011.2 1011.2 0.0
15/02:30pm 29.9 29.5 19.0 52 7.1 ENE 19 26 10 14 1011.4 1011.4 0.0
15/02:00pm 29.8 29.6 18.6 51 7.2 NE 17 26 9 14 1011.5 1011.5 0.0
15/01:30pm 30.2 29.4 18.0 48 7.8 NE 19 28 10 15 1011.7 1011.7 0.0
15/01:00pm 30.4 30.5 19.1 50 7.4 ENE 17 26 9 14 1012.1 1012.1 0.0
15/12:30pm 30.1 29.7 18.8 50 7.3 NE 19 28 10 15 1012.6 1012.6 0.0
15/12:00pm 29.6 29.4 18.4 51 7.2 NE 17 26 9 14 1013.0 1013.0 0.0
15/11:30am 29.8 30.2 18.9 52 7.1 ENE 15 28 8 15 1013.1 1013.1 0.0
15/11:00am 29.6 29.8 19.3 54 6.7 ENE 17 26 9 14 1013.4 1013.4 0.0
15/10:30am 29.0 29.4 18.1 51 7.0 ENE 13 20 7 11 1013.7 1013.7 0.0
15/10:00am 28.1 29.4 20.1 62 5.2 ENE 13 20 7 11 1014.0 1014.0 0.0
15/09:30am 27.3 28.7 19.6 62 5.0 NE 11 17 6 9 1014.1 1014.1 0.0
15/09:00am 27.7 30.1 20.8 66 4.6 ENE 9 15 5 8 1014.1 1014.1 0.0
15/08:30am 25.7 28.4 20.3 72 3.5 W 6 11 3 6 1014.0 1014.0 0.0
15/08:00am 23.2 27.5 22.0 93 0.8 N 2 7 1 4 1013.9 1013.9 0.0
15/07:30am 21.1 25.0 21.1 100 0.0 W 2 6 1 3 1013.4 1013.4 0.0
15/07:00am 20.5 24.1 20.5 100 0.0 NNW 2 7 1 4 1013.2 1013.2 0.0
15/06:56am 20.3 24.2 20.3 100 0.0 CALM 0 6 0 3 1013.2 1013.2 0.0
15/06:30am 18.9 22.1 18.9 100 0.0 CALM 0 0 0 0 1012.9 1012.9 0.0
15/06:00am 18.5 21.5 18.5 100 0.0 CALM 0 0 0 0 1012.5 1012.5 0.0
15/05:30am 18.5 21.5 18.5 100 0.0 CALM 0 0 0 0 1012.3 1012.3 0.0
15/05:00am 18.6 20.5 18.6 100 0.0 NW 6 7 3 4 1011.9 1011.9 0.0
15/04:53am 18.9 21.0 18.9 100 0.0 NNW 6 7 3 4 1011.8 1011.8 0.0
15/04:44am 19.0 21.1 19.0 100 0.0 NW 6 7 3 4 1011.8 1011.8 0.0
15/04:30am 19.1 21.1 19.1 100 0.0 NNW 7 7 4 4 1011.7 1011.7 0.0
15/04:00am 18.6 21.3 18.6 100 0.0 NNW 2 6 1 3 1011.3 1011.3 0.0
15/03:30am 18.4 20.1 18.4 100 0.0 NNW 7 9 4 5 1011.0 1011.0 0.0
15/03:29am 18.4 20.1 18.4 100 0.0 NNW 7 9 4 5 1010.9 1010.9 0.0
15/03:00am 17.8 19.2 17.8 100 0.0 N 7 9 4 5 1010.7 1010.7 0.0
15/02:48am 18.1 19.6 18.1 100 0.0 N 7 9 4 5 1010.8 1010.8 0.0
15/02:30am 18.6 20.3 18.6 100 0.0 NNW 7 9 4 5 1010.8 1010.8 0.0
15/02:25am 18.7 20.5 18.7 100 0.0 NNW 7 9 4 5 1010.7 1010.7 0.0
15/02:00am 18.6 20.3 18.6 100 0.0 NNW 7 9 4 5 1010.9 1010.9 0.0
15/01:30am 19.1 22.4 19.1 100 0.0 CALM 0 0 0 0 1011.0 1011.0 0.0
15/01:22am 18.7 21.8 18.7 100 0.0 CALM 0 0 0 0 1011.0 1011.0 0.0
15/01:00am 19.7 23.3 19.7 100 0.0 CALM 0 0 0 0 1011.3 1011.3 0.0

Other formats

Comma delimited format used in spreadsheet applications
http://www.bom.gov.au/fwo/IDQ60801/IDQ60801.94280.axf

JavaScript Object Notation format (JSON) in row-major order
http://www.bom.gov.au/fwo/IDQ60801/IDQ60801.94280.json

Data quality

Most of these data are generated automatically and are frequently updated. Quality checks on data are not normally performed. It is possible for incorrect values to appear. Refer to information at About Latest Weather Observations and please check the disclaimer before using these data.